createdAt,value
2023-04-18T00:00:18.427Z,100
2023-04-18T00:01:17.925Z,100
2023-04-18T00:02:18.079Z,100
2023-04-18T00:03:18.329Z,100
2023-04-18T00:04:18.519Z,100
2023-04-18T00:05:18.116Z,100
2023-04-18T00:06:17.996Z,100
2023-04-18T00:07:18.044Z,100
2023-04-18T00:08:18.043Z,100
2023-04-18T00:09:18.104Z,100
2023-04-18T00:10:18.054Z,100
2023-04-18T00:11:18.100Z,100
2023-04-18T00:12:18.085Z,100
2023-04-18T00:13:18.163Z,100
2023-04-18T00:14:18.212Z,100
2023-04-18T00:15:18.344Z,100
2023-04-18T00:16:18.154Z,100
2023-04-18T00:17:18.274Z,100
2023-04-18T00:18:18.223Z,100
2023-04-18T00:19:18.198Z,100
2023-04-18T00:20:18.359Z,100
2023-04-18T00:21:18.256Z,100
2023-04-18T00:22:18.248Z,100
2023-04-18T00:23:18.300Z,100
2023-04-18T00:24:18.263Z,100
2023-04-18T00:25:18.718Z,100
2023-04-18T00:26:18.347Z,100
2023-04-18T00:27:18.653Z,100
2023-04-18T00:28:18.395Z,100
2023-04-18T00:29:18.387Z,100
2023-04-18T00:30:18.423Z,100
2023-04-18T00:31:18.469Z,100
2023-04-18T00:32:18.490Z,100
2023-04-18T00:33:18.387Z,100
2023-04-18T00:34:18.469Z,100
2023-04-18T00:35:19.400Z,100
2023-04-18T00:36:18.516Z,100
2023-04-18T00:37:18.482Z,100
2023-04-18T00:38:18.533Z,100
2023-04-18T00:39:18.627Z,100
2023-04-18T00:40:18.672Z,100
2023-04-18T00:41:19.083Z,100
2023-04-18T00:42:18.539Z,100
2023-04-18T00:43:18.687Z,100
2023-04-18T00:44:18.682Z,100
2023-04-18T00:45:18.659Z,100
2023-04-18T00:46:18.688Z,100
2023-04-18T00:47:18.645Z,100
2023-04-18T00:48:18.678Z,100
2023-04-18T00:49:18.827Z,100
2023-04-18T00:50:19.395Z,100
2023-04-18T00:51:19.120Z,100
2023-04-18T00:52:18.995Z,100
2023-04-18T00:53:18.769Z,100
2023-04-18T00:54:19.023Z,100
2023-04-18T00:55:18.973Z,100
2023-04-18T00:56:19.121Z,100
2023-04-18T00:57:18.836Z,100
2023-04-18T00:58:18.859Z,100
2023-04-18T00:59:18.932Z,100
2023-04-18T01:00:18.916Z,100
2023-04-18T01:01:18.953Z,100
2023-04-18T01:02:19.382Z,100
2023-04-18T01:03:19.076Z,100
2023-04-18T01:04:19.466Z,100
2023-04-18T01:05:19.116Z,100
2023-04-18T01:06:19.040Z,100
2023-04-18T01:07:19.113Z,100
2023-04-18T01:08:20.869Z,100
2023-04-18T01:09:19.738Z,100
2023-04-18T01:10:19.636Z,100
2023-04-18T01:11:19.276Z,100
2023-04-18T01:12:19.043Z,100
2023-04-18T01:13:19.880Z,100
2023-04-18T01:14:19.566Z,100
2023-04-18T01:15:19.072Z,100
2023-04-18T01:16:19.196Z,100
2023-04-18T01:17:19.278Z,100
2023-04-18T01:18:19.271Z,100
2023-04-18T01:19:19.174Z,100
2023-04-18T01:20:21.294Z,100
2023-04-18T01:21:19.412Z,100
2023-04-18T01:22:19.780Z,100
2023-04-18T01:23:19.660Z,100
2023-04-18T01:24:19.234Z,100
2023-04-18T01:25:19.444Z,100
2023-04-18T01:26:19.695Z,100
2023-04-18T01:27:19.374Z,100
2023-04-18T01:28:20.284Z,100
2023-04-18T01:29:19.471Z,100
2023-04-18T01:30:19.480Z,100
2023-04-18T01:31:19.435Z,100
2023-04-18T01:32:19.516Z,100
2023-04-18T01:33:19.407Z,100
2023-04-18T01:34:19.494Z,100
2023-04-18T01:35:19.520Z,100
2023-04-18T01:36:19.473Z,100
2023-04-18T01:37:19.486Z,100
2023-04-18T01:38:19.504Z,100
2023-04-18T01:39:19.496Z,100
2023-04-18T01:40:19.502Z,100
2023-04-18T01:41:19.524Z,100
2023-04-18T01:42:19.483Z,100
2023-04-18T01:43:19.556Z,100
2023-04-18T01:44:19.559Z,100
2023-04-18T01:45:19.943Z,100
2023-04-18T01:46:19.657Z,100
2023-04-18T01:47:19.662Z,100
2023-04-18T01:48:19.640Z,100
2023-04-18T01:49:19.637Z,100
2023-04-18T01:50:19.825Z,100
2023-04-18T01:51:19.939Z,100
2023-04-18T01:52:19.749Z,100
2023-04-18T01:53:19.711Z,100
2023-04-18T01:54:19.743Z,100
2023-04-18T01:55:19.776Z,100
2023-04-18T01:56:19.755Z,100
2023-04-18T01:57:19.925Z,100
2023-04-18T01:58:19.811Z,100
2023-04-18T01:59:19.822Z,100
2023-04-18T02:00:20.414Z,100
2023-04-18T02:01:19.959Z,100
2023-04-18T02:02:20.191Z,100
2023-04-18T02:03:20.184Z,100
2023-04-18T02:04:19.986Z,100
2023-04-18T02:05:19.921Z,100
2023-04-18T02:06:19.964Z,100
2023-04-18T02:07:19.906Z,100
2023-04-18T02:08:19.977Z,100
2023-04-18T02:09:20.137Z,100
2023-04-18T02:10:20.447Z,100
2023-04-18T02:11:20.070Z,100
2023-04-18T02:12:19.963Z,100
2023-04-18T02:13:20.080Z,100
2023-04-18T02:14:20.052Z,100
2023-04-18T02:15:20.180Z,100
2023-04-18T02:16:20.188Z,100
2023-04-18T02:17:22.908Z,100
2023-04-18T02:18:20.200Z,100
2023-04-18T02:19:20.106Z,100
2023-04-18T02:20:20.310Z,100
2023-04-18T02:21:20.131Z,100
2023-04-18T02:22:20.137Z,100
2023-04-18T02:23:20.249Z,100
2023-04-18T02:24:20.216Z,100
2023-04-18T02:25:20.429Z,100
2023-04-18T02:26:20.256Z,100
2023-04-18T02:27:20.269Z,100
2023-04-18T02:28:20.321Z,100
2023-04-18T02:29:20.258Z,100
2023-04-18T02:30:20.732Z,100
2023-04-18T02:31:20.316Z,100
2023-04-18T02:32:20.400Z,100
2023-04-18T02:33:20.374Z,100
2023-04-18T02:34:20.424Z,100
2023-04-18T02:35:20.468Z,100
2023-04-18T02:36:20.384Z,100
2023-04-18T02:37:20.427Z,100
2023-04-18T02:38:20.416Z,100
2023-04-18T02:39:20.781Z,100
2023-04-18T02:40:20.524Z,100
2023-04-18T02:41:20.499Z,100
2023-04-18T02:42:20.487Z,100
2023-04-18T02:43:20.562Z,100
2023-04-18T02:44:20.612Z,100
2023-04-18T02:45:20.750Z,100
2023-04-18T02:46:20.541Z,100
2023-04-18T02:47:20.545Z,100
2023-04-18T02:48:20.696Z,100
2023-04-18T02:49:20.624Z,100
2023-04-18T02:50:20.800Z,100
2023-04-18T02:51:20.655Z,100
2023-04-18T02:52:20.685Z,100
2023-04-18T02:53:21.128Z,100
2023-04-18T02:54:21.181Z,100
2023-04-18T02:55:21.438Z,100
2023-04-18T02:56:21.400Z,100
2023-04-18T02:57:21.224Z,100
2023-04-18T02:58:21.385Z,100
2023-04-18T02:59:21.297Z,100
2023-04-18T03:00:21.405Z,100
2023-04-18T03:01:21.381Z,100
2023-04-18T03:02:21.375Z,100
2023-04-18T03:03:21.913Z,100
2023-04-18T03:04:21.403Z,100
2023-04-18T03:05:21.770Z,100
2023-04-18T03:06:21.368Z,100
2023-04-18T03:07:21.494Z,100
2023-04-18T03:08:21.469Z,100
2023-04-18T03:09:21.484Z,100
2023-04-18T03:10:21.463Z,100
2023-04-18T03:11:21.489Z,100
2023-04-18T03:12:21.575Z,100
2023-04-18T03:13:21.520Z,100
2023-04-18T03:14:21.491Z,100
2023-04-18T03:15:21.569Z,100
2023-04-18T03:16:21.887Z,100
2023-04-18T03:17:21.643Z,100
2023-04-18T03:18:21.587Z,100
2023-04-18T03:19:21.532Z,100
2023-04-18T03:20:21.644Z,100
2023-04-18T03:21:21.661Z,100
2023-04-18T03:22:21.605Z,100
2023-04-18T03:23:21.707Z,100
2023-04-18T03:24:21.672Z,100
2023-04-18T03:25:21.824Z,100
2023-04-18T03:26:22.451Z,100
2023-04-18T03:27:21.686Z,100
2023-04-18T03:28:21.686Z,100
2023-04-18T03:29:21.741Z,100
2023-04-18T03:30:21.920Z,100
2023-04-18T03:31:21.849Z,100
2023-04-18T03:32:21.809Z,100
2023-04-18T03:33:21.766Z,100
2023-04-18T03:34:21.860Z,100
2023-04-18T03:35:21.831Z,100
2023-04-18T03:36:21.870Z,100
2023-04-18T03:37:21.936Z,100
2023-04-18T03:38:21.953Z,100
2023-04-18T03:39:21.940Z,100
2023-04-18T03:40:22.100Z,100
2023-04-18T03:41:21.977Z,100
2023-04-18T03:42:21.912Z,100
2023-04-18T03:43:21.926Z,100
2023-04-18T03:44:21.955Z,100
2023-04-18T03:45:21.982Z,100
2023-04-18T03:46:22.181Z,100
2023-04-18T03:47:22.041Z,100
2023-04-18T03:48:22.024Z,100
2023-04-18T03:49:22.022Z,100
2023-04-18T03:50:22.131Z,100
2023-04-18T03:51:22.034Z,100
2023-04-18T03:52:22.125Z,100
2023-04-18T03:53:22.056Z,100
2023-04-18T03:54:22.099Z,100
2023-04-18T03:55:22.176Z,100
2023-04-18T03:56:22.173Z,100
2023-04-18T03:57:22.223Z,100
2023-04-18T03:58:23.188Z,100
2023-04-18T03:59:22.237Z,100
2023-04-18T04:00:22.198Z,100
2023-04-18T04:01:22.211Z,100
2023-04-18T04:02:22.327Z,100
2023-04-18T04:03:22.420Z,100
2023-04-18T04:04:22.316Z,100
2023-04-18T04:05:22.278Z,100
2023-04-18T04:06:22.499Z,100
2023-04-18T04:07:22.432Z,100
2023-04-18T04:08:22.489Z,100
2023-04-18T04:09:22.394Z,100
2023-04-18T04:10:22.527Z,100
2023-04-18T04:11:22.745Z,100
2023-04-18T04:12:22.403Z,100
2023-04-18T04:13:22.496Z,100
2023-04-18T04:14:22.509Z,100
2023-04-18T04:15:22.501Z,100
2023-04-18T04:16:22.539Z,100
2023-04-18T04:17:22.581Z,100
2023-04-18T04:18:22.590Z,100
2023-04-18T04:19:22.605Z,100
2023-04-18T04:20:22.575Z,100
2023-04-18T04:21:22.602Z,100
2023-04-18T04:22:22.633Z,100
2023-04-18T04:23:22.758Z,100
2023-04-18T04:24:22.707Z,100
2023-04-18T04:25:22.850Z,100
2023-04-18T04:26:22.780Z,100
2023-04-18T04:27:22.610Z,100
2023-04-18T04:28:22.990Z,100
2023-04-18T04:29:22.974Z,100
2023-04-18T04:30:22.711Z,100
2023-04-18T04:31:22.812Z,100
2023-04-18T04:32:22.779Z,100
2023-04-18T04:33:23.231Z,100
2023-04-18T04:34:22.775Z,100
2023-04-18T04:35:22.790Z,100
2023-04-18T04:36:23.218Z,100
2023-04-18T04:37:22.859Z,100
2023-04-18T04:38:22.880Z,100
2023-04-18T04:39:22.924Z,100
2023-04-18T04:40:22.978Z,100
2023-04-18T04:41:22.866Z,100
2023-04-18T04:42:23.003Z,100
2023-04-18T04:43:22.976Z,100
2023-04-18T04:44:22.978Z,100
2023-04-18T04:45:23.036Z,100
2023-04-18T04:46:23.344Z,100
2023-04-18T04:47:22.962Z,100
2023-04-18T04:48:23.201Z,100
2023-04-18T04:49:22.968Z,100
2023-04-18T04:50:23.138Z,100
2023-04-18T04:51:23.258Z,100
2023-04-18T04:52:23.087Z,100
2023-04-18T04:53:23.775Z,100
2023-04-18T04:54:23.180Z,100
2023-04-18T04:55:23.112Z,100
2023-04-18T04:56:23.397Z,100
2023-04-18T04:57:23.137Z,100
2023-04-18T04:58:23.153Z,100
2023-04-18T04:59:32.013Z,100
2023-04-18T05:00:24.398Z,100
2023-04-18T05:01:24.386Z,100
2023-04-18T05:02:24.498Z,100
2023-04-18T05:03:24.425Z,100
2023-04-18T05:04:24.479Z,100
2023-04-18T05:05:24.322Z,100
2023-04-18T05:06:24.601Z,100
2023-04-18T05:07:24.404Z,100
2023-04-18T05:08:24.400Z,100
2023-04-18T05:09:24.395Z,100
2023-04-18T05:10:24.414Z,100
2023-04-18T05:11:24.356Z,100
2023-04-18T05:12:24.434Z,100
2023-04-18T05:13:24.436Z,100
2023-04-18T05:14:24.536Z,100
2023-04-18T05:15:24.608Z,100
2023-04-18T05:16:24.574Z,100
2023-04-18T05:17:24.548Z,100
2023-04-18T05:18:24.519Z,100
2023-04-18T05:19:24.512Z,100
2023-04-18T05:20:24.664Z,100
2023-04-18T05:21:24.469Z,100
2023-04-18T05:22:24.494Z,100
2023-04-18T05:23:24.738Z,100
2023-04-18T05:24:24.650Z,100
2023-04-18T05:25:24.761Z,100
2023-04-18T05:26:24.696Z,100
2023-04-18T05:27:24.668Z,100
2023-04-18T05:28:25.330Z,100
2023-04-18T05:29:24.763Z,100
2023-04-18T05:30:24.656Z,100
2023-04-18T05:31:24.746Z,100
2023-04-18T05:32:24.730Z,100
2023-04-18T05:33:24.713Z,100
2023-04-18T05:34:24.850Z,100
2023-04-18T05:35:24.959Z,100
2023-04-18T05:36:24.815Z,100
2023-04-18T05:37:24.717Z,100
2023-04-18T05:38:24.861Z,100
2023-04-18T05:39:24.739Z,100
2023-04-18T05:40:25.177Z,100
2023-04-18T05:41:24.918Z,100
2023-04-18T05:42:24.851Z,100
2023-04-18T05:43:24.814Z,100
2023-04-18T05:44:24.896Z,100
2023-04-18T05:45:24.831Z,100
2023-04-18T05:46:24.983Z,100
2023-04-18T05:47:24.855Z,100
2023-04-18T05:48:24.877Z,100
2023-04-18T05:49:24.868Z,100
2023-04-18T05:50:25.038Z,100
2023-04-18T05:51:24.965Z,100
2023-04-18T05:52:25.055Z,100
2023-04-18T05:53:24.955Z,100
2023-04-18T05:54:24.978Z,100
2023-04-18T05:55:24.959Z,100
2023-04-18T05:56:25.007Z,100
2023-04-18T05:57:25.166Z,100
2023-04-18T05:58:25.044Z,100
2023-04-18T05:59:25.017Z,100
2023-04-18T06:00:25.072Z,100
2023-04-18T06:01:25.205Z,100
2023-04-18T06:02:25.270Z,100
2023-04-18T06:03:25.320Z,100
2023-04-18T06:04:25.365Z,100
2023-04-18T06:05:25.451Z,100
2023-04-18T06:06:25.412Z,100
2023-04-18T06:07:25.198Z,100
2023-04-18T06:08:25.158Z,100
2023-04-18T06:09:25.217Z,100
2023-04-18T06:10:25.200Z,100
2023-04-18T06:11:25.192Z,100
2023-04-18T06:12:25.271Z,100
2023-04-18T06:13:25.198Z,100
2023-04-18T06:14:25.228Z,100
2023-04-18T06:15:25.230Z,100
2023-04-18T06:16:25.355Z,100
2023-04-18T06:17:25.244Z,100
2023-04-18T06:18:25.279Z,100
2023-04-18T06:19:25.476Z,100
2023-04-18T06:20:25.308Z,100
2023-04-18T06:21:25.442Z,100
2023-04-18T06:22:25.398Z,100
2023-04-18T06:23:25.380Z,100
2023-04-18T06:24:25.376Z,100
2023-04-18T06:25:25.490Z,100
2023-04-18T06:26:25.580Z,100
2023-04-18T06:27:31.067Z,100
2023-04-18T06:28:28.528Z,100
2023-04-18T06:29:28.500Z,100
2023-04-18T06:30:28.509Z,100
2023-04-18T06:31:28.853Z,100
2023-04-18T06:32:28.532Z,100
2023-04-18T06:33:28.581Z,100
2023-04-18T06:34:28.575Z,100
2023-04-18T06:35:30.664Z,100
2023-04-18T06:36:28.646Z,100
2023-04-18T06:37:28.782Z,100
2023-04-18T06:38:28.686Z,100
2023-04-18T06:39:28.674Z,100
2023-04-18T06:40:28.670Z,100
2023-04-18T06:41:28.678Z,100
2023-04-18T06:42:28.754Z,100
2023-04-18T06:43:28.703Z,100
2023-04-18T06:44:28.742Z,100
2023-04-18T06:45:30.116Z,100
2023-04-18T06:46:28.866Z,100
2023-04-18T06:47:29.172Z,100
2023-04-18T06:48:28.740Z,100
2023-04-18T06:49:28.802Z,100
2023-04-18T06:50:29.105Z,100
2023-04-18T06:51:28.866Z,100
2023-04-18T06:52:28.918Z,100
2023-04-18T06:53:29.002Z,100
2023-04-18T06:54:28.931Z,100
2023-04-18T06:55:28.882Z,100
2023-04-18T06:56:28.961Z,100
2023-04-18T06:57:29.050Z,100
2023-04-18T06:58:28.978Z,100
2023-04-18T06:59:28.961Z,100
2023-04-18T07:00:29.026Z,100
2023-04-18T07:01:31.171Z,100
2023-04-18T07:02:28.984Z,100
2023-04-18T07:03:29.114Z,100
2023-04-18T07:04:29.058Z,100
2023-04-18T07:05:29.201Z,100
2023-04-18T07:06:29.012Z,100
2023-04-18T07:07:29.156Z,100
2023-04-18T07:08:29.075Z,100
2023-04-18T07:09:29.288Z,100
2023-04-18T07:10:29.373Z,100
2023-04-18T07:11:29.295Z,100
2023-04-18T07:12:29.162Z,100
2023-04-18T07:13:29.239Z,100
2023-04-18T07:14:29.100Z,100
2023-04-18T07:15:29.212Z,100
2023-04-18T07:16:29.178Z,100
2023-04-18T07:17:29.225Z,100
2023-04-18T07:18:37.493Z,100
2023-04-18T07:19:29.963Z,100
2023-04-18T07:20:30.061Z,100
2023-04-18T07:21:30.000Z,100
2023-04-18T07:22:30.069Z,100
2023-04-18T07:23:30.077Z,100
2023-04-18T07:24:30.115Z,100
2023-04-18T07:25:30.262Z,100
2023-04-18T07:26:30.114Z,100
2023-04-18T07:27:30.054Z,100
2023-04-18T07:28:30.907Z,100
2023-04-18T07:29:30.112Z,100
2023-04-18T07:30:30.156Z,100
2023-04-18T07:31:30.465Z,100
2023-04-18T07:32:30.253Z,100
2023-04-18T07:33:30.156Z,100
2023-04-18T07:34:30.216Z,100
2023-04-18T07:35:30.176Z,100
2023-04-18T07:36:30.286Z,100
2023-04-18T07:37:30.328Z,100
2023-04-18T07:38:30.242Z,100
2023-04-18T07:39:30.252Z,100
2023-04-18T07:40:30.261Z,100
2023-04-18T07:41:30.736Z,100
2023-04-18T07:42:30.867Z,100
2023-04-18T07:43:30.422Z,100
2023-04-18T07:44:30.407Z,100
2023-04-18T07:45:30.703Z,100
2023-04-18T07:46:30.866Z,100
2023-04-18T07:47:32.204Z,100
2023-04-18T07:48:30.613Z,100
2023-04-18T07:49:30.369Z,100
2023-04-18T07:50:30.384Z,100
2023-04-18T07:51:30.703Z,100
2023-04-18T07:52:31.282Z,100
2023-04-18T07:53:30.491Z,100
2023-04-18T07:54:30.488Z,100
2023-04-18T07:55:30.406Z,100
2023-04-18T07:56:30.443Z,100
2023-04-18T07:57:30.485Z,100
2023-04-18T07:58:30.636Z,100
2023-04-18T07:59:30.773Z,100
2023-04-18T08:00:30.603Z,100
2023-04-18T08:01:30.541Z,100
2023-04-18T08:02:30.690Z,100
2023-04-18T08:03:30.844Z,100
2023-04-18T08:04:30.813Z,100
2023-04-18T08:05:30.769Z,100
2023-04-18T08:06:30.663Z,100
2023-04-18T08:07:30.678Z,100
2023-04-18T08:08:30.614Z,100
2023-04-18T08:09:30.674Z,100
2023-04-18T08:10:30.828Z,100
2023-04-18T08:11:30.928Z,100
2023-04-18T08:12:30.722Z,100
2023-04-18T08:13:30.756Z,100
2023-04-18T08:14:30.700Z,100
2023-04-18T08:15:30.726Z,100
2023-04-18T08:16:30.728Z,100
2023-04-18T08:17:31.162Z,100
2023-04-18T08:18:30.816Z,100
2023-04-18T08:19:30.800Z,100
2023-04-18T08:20:30.871Z,100
2023-04-18T08:21:31.096Z,100
2023-04-18T08:22:31.053Z,98.41
2023-04-18T08:23:30.959Z,98.17
2023-04-18T08:24:30.831Z,98.09
2023-04-18T08:25:31.317Z,100
2023-04-18T08:26:30.834Z,98.78
2023-04-18T08:27:31.025Z,96.11
2023-04-18T08:28:31.176Z,99.81
2023-04-18T08:29:31.040Z,95.87
2023-04-18T08:30:30.977Z,96.33
2023-04-18T08:31:31.039Z,97.09
2023-04-18T08:32:31.633Z,98.47
2023-04-18T08:33:30.938Z,91.55
2023-04-18T08:34:32.950Z,89.81
2023-04-18T08:35:31.084Z,94.41
2023-04-18T08:36:31.037Z,90.38
2023-04-18T08:37:32.090Z,89.25
2023-04-18T08:38:31.086Z,86.14
2023-04-18T08:39:31.065Z,97.82
2023-04-18T08:40:31.193Z,97.52
2023-04-18T08:41:35.717Z,85.62
2023-04-18T08:42:32.639Z,85.15
2023-04-18T08:43:32.556Z,83.81
2023-04-18T08:44:33.806Z,82.54
2023-04-18T08:45:32.993Z,86.96
2023-04-18T08:46:33.628Z,83.2
2023-04-18T08:47:34.622Z,87.01
2023-04-18T08:48:33.162Z,83.96
2023-04-18T08:49:33.255Z,83.46
2023-04-18T08:50:33.471Z,86.79
2023-04-18T08:51:33.514Z,84.42
2023-04-18T08:52:35.057Z,88.52
2023-04-18T08:53:33.855Z,82.66
2023-04-18T08:54:33.291Z,78.79
2023-04-18T08:55:33.224Z,80.22
2023-04-18T08:56:33.288Z,80.99
2023-04-18T08:57:35.361Z,79.91
2023-04-18T08:58:33.126Z,82.38
2023-04-18T08:59:33.166Z,83.61
2023-04-18T09:00:33.325Z,86.17
2023-04-18T09:02:39.232Z,84.17
2023-04-18T09:03:41.342Z,86.5
2023-04-18T09:04:47.201Z,81.67
2023-04-18T09:05:38.877Z,80.83
2023-04-18T09:06:50.923Z,80.37
2023-04-18T09:07:42.638Z,75.1
2023-04-18T09:08:43.074Z,75.17
2023-04-18T09:09:46.564Z,73.16
2023-04-18T09:10:44.807Z,74.5
2023-04-18T09:11:45.481Z,70.83
2023-04-18T09:12:45.169Z,71.41
2023-04-18T09:13:43.316Z,72.95
2023-04-18T09:14:44.648Z,75.12
2023-04-18T09:15:53.779Z,72.96
2023-04-18T09:16:45.899Z,76.65
2023-04-18T09:17:47.029Z,72.88
2023-04-18T09:19:48.795Z,69.56
2023-04-18T09:20:48.177Z,68.76
2023-04-18T09:22:53.805Z,72.38
2023-04-18T09:24:54.461Z,71.32
2023-04-18T09:25:53.945Z,70.79
2023-04-18T09:26:54.333Z,69.61
2023-04-18T09:27:53.722Z,73.43
2023-04-18T09:28:54.063Z,72.77
2023-04-18T09:29:54.663Z,69.19
2023-04-18T09:30:54.326Z,70.05
2023-04-18T09:32:02.621Z,67.96
2023-04-18T09:32:57.317Z,71.12
2023-04-18T09:33:54.701Z,72.37
2023-04-18T09:34:58.203Z,71.29
2023-04-18T09:35:55.642Z,71.43
2023-04-18T09:37:07.582Z,69.31
2023-04-18T09:38:00.228Z,70.46
2023-04-18T09:39:00.165Z,68.08
2023-04-18T09:39:59.422Z,70.35
2023-04-18T09:41:08.448Z,69.28
2023-04-18T09:42:01.104Z,71.3
2023-04-18T09:43:00.303Z,70.39
2023-04-18T09:44:13.209Z,68.27
2023-04-18T09:45:07.868Z,65.85
2023-04-18T09:46:05.026Z,65.74
2023-04-18T09:47:05.826Z,69.66
2023-04-18T09:48:04.879Z,68.44
2023-04-18T09:49:04.696Z,61.59
2023-04-18T09:50:08.192Z,63.98
2023-04-18T09:51:06.277Z,63.33
2023-04-18T09:52:06.182Z,65.25
2023-04-18T09:53:05.632Z,64.04
2023-04-18T09:54:05.314Z,61.96
2023-04-18T09:55:08.863Z,63.64
2023-04-18T09:56:06.990Z,69.44
2023-04-18T09:57:09.727Z,63.47
2023-04-18T09:58:07.172Z,67.6
2023-04-18T09:59:07.788Z,68.31
2023-04-18T10:00:11.061Z,65.08
2023-04-18T10:01:07.884Z,65.13
2023-04-18T10:02:14.997Z,67.8
2023-04-18T10:03:14.057Z,68.47
2023-04-18T10:04:11.956Z,66.62
2023-04-18T10:05:13.655Z,66.61
2023-04-18T10:06:15.088Z,64.53
2023-04-18T10:07:11.876Z,67.37
2023-04-18T10:08:13.116Z,62.09
2023-04-18T10:09:12.552Z,62.43
2023-04-18T10:10:12.217Z,66.63
2023-04-18T10:11:13.607Z,67.92
2023-04-18T10:12:12.350Z,68.16
2023-04-18T10:13:13.721Z,66.79
2023-04-18T10:14:13.581Z,64.46
2023-04-18T10:15:15.033Z,64.54
2023-04-18T10:16:12.032Z,67.86
2023-04-18T10:17:13.853Z,67.44
2023-04-18T10:18:15.354Z,64.65
2023-04-18T10:19:22.538Z,63.21
2023-04-18T10:20:17.942Z,68.55
2023-04-18T10:21:14.675Z,72.36
2023-04-18T10:22:14.700Z,68.45
2023-04-18T10:30:48.419Z,68.31
2023-04-18T10:31:40.096Z,67.67
2023-04-18T10:32:40.253Z,66.8
2023-04-18T10:33:42.467Z,69.27
2023-04-18T10:34:40.670Z,65.83
2023-04-18T10:38:49.400Z,69.16
2023-04-18T10:40:47.743Z,69.67
2023-04-18T10:41:49.414Z,67.53
2023-04-18T10:49:19.383Z,71.21
2023-04-18T10:50:11.280Z,68.58
2023-04-18T10:51:15.376Z,68.45
2023-04-18T10:52:13.499Z,69.4
2023-04-18T10:53:12.265Z,68.9
2023-04-18T10:55:14.910Z,67.55
2023-04-18T10:56:12.673Z,69.82
2023-04-18T10:57:12.389Z,67.27
2023-04-18T10:58:15.170Z,67.71
2023-04-18T10:59:12.667Z,65.08
2023-04-18T11:00:13.918Z,68.33
2023-04-18T11:01:14.180Z,64.06
2023-04-18T11:02:22.956Z,67.21
2023-04-18T11:03:15.097Z,63.86
2023-04-18T11:04:15.631Z,65.97
2023-04-18T11:05:18.652Z,65.69
2023-04-18T11:06:15.507Z,63.01
2023-04-18T11:07:15.352Z,60.87
2023-04-18T11:08:24.255Z,64.6
2023-04-18T11:09:17.522Z,63.42
2023-04-18T11:10:17.376Z,64.41
2023-04-18T11:11:16.137Z,62.65
2023-04-18T11:12:16.016Z,62
2023-04-18T11:13:15.956Z,61.46
2023-04-18T11:14:16.369Z,63.54
2023-04-18T11:15:20.582Z,63.42
2023-04-18T11:16:26.883Z,62.89
2023-04-18T11:17:22.707Z,63.91
2023-04-18T11:18:19.534Z,63.94
2023-04-18T11:19:20.381Z,67.63
2023-04-18T11:20:19.898Z,67.39
2023-04-18T11:21:19.716Z,66.39
2023-04-18T11:22:19.575Z,68.75
2023-04-18T11:23:20.436Z,67.57
2023-04-18T11:24:23.363Z,68.93
2023-04-18T11:25:20.978Z,67.42
2023-04-18T11:26:20.310Z,67.84
2023-04-18T11:27:24.450Z,67.54
2023-04-18T11:28:22.030Z,70.42
2023-04-18T11:29:21.233Z,67.27
2023-04-18T11:30:21.484Z,66.96
2023-04-18T11:31:24.592Z,66.26
2023-04-18T11:32:22.011Z,64.06
2023-04-18T11:33:21.417Z,64.77
2023-04-18T11:34:21.644Z,65.24
2023-04-18T11:35:21.425Z,66.13
2023-04-18T11:36:21.452Z,64.61
2023-04-18T11:37:21.558Z,65.78
2023-04-18T11:38:27.386Z,66.3
2023-04-18T11:39:24.205Z,63.85
2023-04-18T11:40:24.439Z,63.47
2023-04-18T11:41:24.273Z,62.5
2023-04-18T11:42:27.677Z,62.47
2023-04-18T11:43:24.779Z,64.62
2023-04-18T11:44:24.390Z,64.04
2023-04-18T11:45:24.458Z,65.12
2023-04-18T11:46:37.005Z,68.06
2023-04-18T11:47:32.946Z,69.07
2023-04-18T11:48:38.871Z,68.11
2023-04-18T11:49:31.630Z,64.92
2023-04-18T11:50:35.266Z,66.4
2023-04-18T11:51:33.224Z,68.3
2023-04-18T11:52:34.909Z,68.79
2023-04-18T11:53:32.690Z,66.53
2023-04-18T11:54:35.292Z,68.97
2023-04-18T11:55:32.458Z,72.21
2023-04-18T11:56:34.627Z,72.92
2023-04-18T11:57:32.998Z,67.17
2023-04-18T11:58:33.885Z,65.23
2023-04-18T11:59:33.313Z,67.45
2023-04-18T12:00:36.850Z,67.13
2023-04-18T12:01:33.670Z,66.99
2023-04-18T12:02:43.605Z,67.61
2023-04-18T12:03:35.643Z,66.92
2023-04-18T12:04:50.029Z,70.81
2023-04-18T12:05:38.384Z,66.42
2023-04-18T12:06:49.695Z,69.38
2023-04-18T12:07:42.322Z,69.03
2023-04-18T12:08:42.897Z,68.05
2023-04-18T12:09:41.803Z,66.99
2023-04-18T12:10:51.125Z,65.51
2023-04-18T12:11:42.912Z,66.28
2023-04-18T12:12:47.280Z,66.22
2023-04-18T12:13:45.771Z,68.67
2023-04-18T12:14:45.578Z,66.15
2023-04-18T12:15:45.075Z,65.32
2023-04-18T12:16:46.048Z,65.13
2023-04-18T12:17:47.494Z,67.19
2023-04-18T12:18:44.426Z,66.14
2023-04-18T12:19:44.533Z,64.93
2023-04-18T12:20:51.287Z,63.06
2023-04-18T12:21:57.829Z,64.83
2023-04-18T12:22:52.181Z,65.34
2023-04-18T12:23:49.615Z,67.68
2023-04-18T12:26:04.517Z,67.08
2023-04-18T12:26:56.244Z,69.6
2023-04-18T12:28:00.737Z,67.45
2023-04-18T12:29:00.388Z,67.04
2023-04-18T12:29:57.634Z,67.42
2023-04-18T12:30:57.827Z,66.85
2023-04-18T12:31:57.535Z,67.25
2023-04-18T12:32:58.874Z,67.08
2023-04-18T12:33:57.531Z,68.38
2023-04-18T12:34:57.506Z,68.85
2023-04-18T12:35:57.591Z,69.74
2023-04-18T12:36:57.728Z,70.86
2023-04-18T12:37:58.616Z,70.27
2023-04-18T12:38:57.656Z,67.43
2023-04-18T12:39:57.709Z,65.93
2023-04-18T12:40:57.625Z,64.75
2023-04-18T12:41:57.898Z,63.93
2023-04-18T12:42:57.674Z,64.49
2023-04-18T12:43:57.709Z,65.61
2023-04-18T12:44:57.742Z,60.67
2023-04-18T12:45:57.816Z,61.36
2023-04-18T12:46:57.777Z,61.47
2023-04-18T12:47:58.087Z,62.28
2023-04-18T12:48:57.773Z,60.78
2023-04-18T12:49:57.837Z,59.81
2023-04-18T12:50:57.864Z,60.56
2023-04-18T12:51:57.871Z,58.89
2023-04-18T12:52:58.614Z,58.52
2023-04-18T12:53:57.933Z,58.12
2023-04-18T12:54:57.958Z,59.77
2023-04-18T12:55:57.941Z,56.57
2023-04-18T12:56:58.097Z,58.33
2023-04-18T12:57:57.989Z,58.37
2023-04-18T12:58:57.992Z,57.94
2023-04-18T12:59:58.102Z,58.06
2023-04-18T13:00:59.043Z,56.48
2023-04-18T13:01:58.145Z,60.26
2023-04-18T13:02:58.679Z,62.52
2023-04-18T13:04:11.030Z,60.78
2023-04-18T13:04:59.548Z,59.63
2023-04-18T13:05:59.541Z,56.91
2023-04-18T13:07:04.762Z,56.02
2023-04-18T13:09:03.744Z,55.75
2023-04-18T13:10:03.985Z,58.23
2023-04-18T13:11:03.539Z,54.43
2023-04-18T13:12:03.779Z,57.23
2023-04-18T13:13:03.602Z,57.88
2023-04-18T13:14:03.603Z,56.65
2023-04-18T13:15:04.119Z,55.69
2023-04-18T13:16:04.025Z,55.61
2023-04-18T13:17:03.880Z,53.79
2023-04-18T13:18:03.955Z,58.81
2023-04-18T13:19:03.771Z,58.71
2023-04-18T13:20:04.624Z,53.77
2023-04-18T13:21:03.948Z,52.61
2023-04-18T13:22:03.675Z,51.65
2023-04-18T13:23:03.928Z,52.04
2023-04-18T13:24:03.926Z,51.52
2023-04-18T13:25:04.054Z,53.88
2023-04-18T13:26:03.882Z,54.9
2023-04-18T13:27:03.875Z,54.24
2023-04-18T13:28:04.085Z,54.17
2023-04-18T13:29:04.389Z,55.03
2023-04-18T13:30:04.392Z,55.27
2023-04-18T13:31:03.896Z,55.03
2023-04-18T13:32:04.463Z,53
2023-04-18T13:33:03.942Z,53.5
2023-04-18T13:34:03.884Z,53.73
2023-04-18T13:35:04.227Z,54.87
2023-04-18T13:36:04.227Z,55.06
2023-04-18T13:37:03.952Z,55.39
2023-04-18T13:38:03.910Z,55.43
2023-04-18T13:39:04.152Z,56.14
2023-04-18T13:40:04.666Z,54.59
2023-04-18T13:41:12.297Z,57.12
2023-04-18T13:42:04.888Z,55.86
2023-04-18T13:43:04.841Z,54.21
2023-04-18T13:44:04.881Z,55.16
2023-04-18T13:45:05.340Z,57.76
2023-04-18T13:46:04.916Z,59.17
2023-04-18T13:47:05.582Z,56.88
2023-04-18T13:48:05.179Z,58.09
2023-04-18T13:49:05.029Z,58.42
2023-04-18T13:50:05.572Z,57.24
2023-04-18T13:51:05.043Z,57.6
2023-04-18T13:52:05.007Z,58.89